PWSweather.com
Personal Weather Stations
Station Observations
IVENETOL9
Brugine, BrugineIT 35020

BrugineBrugineIT 35020

Lat: 45.2975, Lon: 11.9962777

Elevation: 19

Station Type: Davis Vantage Pro2 Plus

http://www.meteobrugine.it/

Latest ConditionsUpdated 4:30:44 PM GMT+01:01 Thursday, Nov 15, 2018
Currently Today's Max Today's Min Today's Average
Temperature 58.4°F14.7°C 62.5°F16.9°C 45.1°F7.3°C 52.3°F11.3°C
Dew Point 48.2°F9.0°C 51.9°F11.1°C 43.7°F6.5°C 47.4°F8.6°C
Winds Calm Calm 1.1 mph -1.8 kmh - - 0.1 mph 0.2 kmh
Wind Gusts -- 5.0 mph8.0 kmh - -
Humidity 69% 95% 62% 85%
Pressure 30.25 in1024.4 mb 30.33 in1027.1 mb 30.25 in1024.4 mb -
Precipitation - 0.01 in0.3 mm - -
Hour Temp Dew Point Humidity Winds Wind Gusts Pressure Precip Precip Rate Daily Precip Total
04:30 PM 58.4°F14.7°C 48.2°F9.0°C 69% Calm Calm -- 30.25 in1024.4 mb - 0.00 in0.0 mm 0.01 in0.3 mm
04:15 PM 59.7°F15.4°C 48.8°F9.3°C 67% Calm Calm -- 30.25 in1024.4 mb - 0.00 in0.0 mm 0.01 in0.3 mm
04:00 PM 61.0°F16.1°C 49.2°F9.6°C 65% Calm Calm -- 30.25 in1024.4 mb - 0.00 in0.0 mm 0.01 in0.3 mm
03:45 PM 61.6°F16.4°C 49.7°F9.8°C 65% Calm Calm -- 30.25 in1024.4 mb - 0.00 in0.0 mm 0.01 in0.3 mm
03:30 PM 61.8°F16.6°C 49.1°F9.5°C 63% Calm Calm -- 30.25 in1024.4 mb - 0.00 in0.0 mm 0.01 in0.3 mm
03:15 PM 62.2°F16.8°C 49.0°F9.4°C 62% Calm Calm -- 30.26 in1024.7 mb - 0.00 in0.0 mm 0.01 in0.3 mm
03:00 PM 62.5°F16.9°C 49.3°F9.6°C 62% 0.4 mph NE0.6 kmh NE 1.0 mph1.6 kmh 30.26 in1024.7 mb - 0.00 in0.0 mm 0.01 in0.3 mm
02:45 PM 62.5°F16.9°C 49.3°F9.6°C 62% Calm Calm 1.0 mph1.6 kmh 30.27 in1025.1 mb - 0.00 in0.0 mm 0.01 in0.3 mm
02:30 PM 62.3°F16.8°C 49.1°F9.5°C 62% Calm Calm -- 30.27 in1025.1 mb - 0.00 in0.0 mm 0.01 in0.3 mm
02:15 PM 62.3°F16.8°C 49.5°F9.7°C 63% Calm Calm -- 30.27 in1025.1 mb - 0.00 in0.0 mm 0.01 in0.3 mm
02:00 PM 61.8°F16.6°C 49.1°F9.5°C 63% 0.3 mph NE0.5 kmh NE -- 30.27 in1025.1 mb - 0.00 in0.0 mm 0.01 in0.3 mm
01:45 PM 61.3°F16.3°C 49.4°F9.7°C 65% 0.1 mph NE0.2 kmh NE 5.0 mph8.0 kmh 30.28 in1025.4 mb - 0.00 in0.0 mm 0.01 in0.3 mm
01:30 PM 61.0°F16.1°C 49.6°F9.8°C 66% 0.2 mph E0.3 kmh E 1.0 mph1.6 kmh 30.28 in1025.4 mb - 0.00 in0.0 mm 0.01 in0.3 mm
01:15 PM 60.8°F16.0°C 49.4°F9.7°C 66% Calm Calm -- 30.28 in1025.4 mb - 0.00 in0.0 mm 0.01 in0.3 mm
01:00 PM 60.6°F15.9°C 47.9°F8.8°C 63% 0.2 mph NE0.3 kmh NE -- 30.29 in1025.7 mb - 0.00 in0.0 mm 0.01 in0.3 mm
12:45 PM 60.5°F15.8°C 48.7°F9.3°C 65% 0.2 mph NE0.3 kmh NE 4.0 mph6.4 kmh 30.29 in1025.7 mb - 0.00 in0.0 mm 0.01 in0.3 mm
12:30 PM 60.1°F15.6°C 49.5°F9.7°C 68% 0.7 mph NE1.1 kmh NE 4.0 mph6.4 kmh 30.29 in1025.7 mb - 0.00 in0.0 mm 0.01 in0.3 mm
12:15 PM 59.5°F15.3°C 49.3°F9.6°C 69% 1.1 mph ENE1.8 kmh ENE 2.0 mph3.2 kmh 30.29 in1025.7 mb - 0.00 in0.0 mm 0.01 in0.3 mm
12:00 PM 58.9°F14.9°C 48.7°F9.3°C 69% 0.3 mph NE0.5 kmh NE -- 30.30 in1026.1 mb - 0.00 in0.0 mm 0.01 in0.3 mm
11:45 AM 58.5°F14.7°C 51.0°F10.6°C 76% Calm Calm -- 30.30 in1026.1 mb - 0.00 in0.0 mm 0.01 in0.3 mm
11:30 AM 58.0°F14.4°C 51.5°F10.8°C 79% 0.1 mph NE0.2 kmh NE 2.0 mph3.2 kmh 30.30 in1026.1 mb - 0.00 in0.0 mm 0.01 in0.3 mm
11:15 AM 57.6°F14.2°C 51.1°F10.6°C 79% 0.4 mph NE0.6 kmh NE 2.0 mph3.2 kmh 30.31 in1026.4 mb - 0.00 in0.0 mm 0.01 in0.3 mm
11:00 AM 57.1°F13.9°C 51.7°F10.9°C 82% Calm Calm 2.0 mph3.2 kmh 30.31 in1026.4 mb - 0.00 in0.0 mm 0.01 in0.3 mm
10:45 AM 56.3°F13.5°C 51.6°F10.9°C 84% Calm Calm -- 30.31 in1026.4 mb - 0.00 in0.0 mm 0.01 in0.3 mm
10:30 AM 55.3°F12.9°C 51.5°F10.8°C 87% Calm Calm -- 30.32 in1026.8 mb - 0.00 in0.0 mm 0.01 in0.3 mm
10:15 AM 53.9°F12.2°C 51.9°F11.1°C 93% 0.3 mph NE0.5 kmh NE 1.0 mph1.6 kmh 30.32 in1026.8 mb - 0.00 in0.0 mm 0.01 in0.3 mm
10:00 AM 52.4°F11.3°C 51.0°F10.6°C 95% Calm Calm -- 30.32 in1026.8 mb - 0.00 in0.0 mm 0.01 in0.3 mm
09:45 AM 51.2°F10.7°C 49.8°F9.9°C 95% Calm Calm -- 30.32 in1026.8 mb - 0.00 in0.0 mm 0.01 in0.3 mm
09:30 AM 50.5°F10.3°C 49.1°F9.5°C 95% Calm Calm -- 30.32 in1026.8 mb - 0.00 in0.0 mm 0.01 in0.3 mm
09:15 AM 49.7°F9.8°C 48.3°F9.1°C 95% 0.3 mph NNE0.5 kmh NNE -- 30.32 in1026.8 mb - 0.00 in0.0 mm 0.01 in0.3 mm
09:00 AM 48.8°F9.3°C 47.4°F8.6°C 95% Calm Calm -- 30.32 in1026.8 mb - 0.00 in0.0 mm 0.01 in0.3 mm
08:45 AM 47.8°F8.8°C 46.4°F8.0°C 95% Calm Calm -- 30.32 in1026.8 mb - 0.00 in0.0 mm 0.01 in0.3 mm
08:30 AM 46.8°F8.2°C 45.5°F7.5°C 95% Calm Calm -- 30.32 in1026.8 mb - 0.00 in0.0 mm 0.01 in0.3 mm
08:15 AM 46.0°F7.8°C 44.6°F7.0°C 95% Calm Calm -- 30.32 in1026.8 mb - 0.00 in0.0 mm 0.01 in0.3 mm
08:00 AM 45.4°F7.4°C 44.0°F6.7°C 95% Calm Calm -- 30.32 in1026.8 mb - 0.00 in0.0 mm 0.01 in0.3 mm
07:45 AM 45.1°F7.3°C 43.7°F6.5°C 95% Calm Calm -- 30.32 in1026.8 mb - 0.00 in0.0 mm 0.01 in0.3 mm
07:30 AM 45.1°F7.3°C 43.7°F6.5°C 95% Calm Calm -- 30.31 in1026.4 mb - 0.00 in0.0 mm 0.01 in0.3 mm
07:15 AM 45.2°F7.3°C 43.9°F6.6°C 95% Calm Calm -- 30.31 in1026.4 mb - 0.00 in0.0 mm 0.01 in0.3 mm
07:00 AM 45.3°F7.4°C 44.0°F6.7°C 95% Calm Calm -- 30.30 in1026.1 mb - 0.00 in0.0 mm 0.01 in0.3 mm
06:45 AM 45.4°F7.4°C 44.1°F6.7°C 95% Calm Calm -- 30.30 in1026.1 mb - 0.00 in0.0 mm 0.01 in0.3 mm
06:30 AM 45.5°F7.5°C 44.2°F6.8°C 95% Calm Calm -- 30.30 in1026.1 mb - 0.00 in0.0 mm 0.01 in0.3 mm
06:15 AM 45.6°F7.6°C 44.2°F6.8°C 95% Calm Calm -- 30.30 in1026.1 mb - 0.00 in0.0 mm 0.01 in0.3 mm
06:00 AM 45.6°F7.6°C 44.3°F6.8°C 95% Calm Calm -- 30.30 in1026.1 mb - 0.00 in0.0 mm 0.01 in0.3 mm
05:45 AM 45.6°F7.6°C 44.2°F6.8°C 95% Calm Calm -- 30.30 in1026.1 mb - 0.00 in0.0 mm 0.01 in0.3 mm
05:30 AM 45.5°F7.5°C 44.2°F6.8°C 95% Calm Calm -- 30.30 in1026.1 mb - 0.00 in0.0 mm 0.01 in0.3 mm
05:15 AM 45.6°F7.6°C 44.3°F6.8°C 95% Calm Calm -- 30.30 in1026.1 mb - 0.00 in0.0 mm 0.01 in0.3 mm
05:00 AM 45.7°F7.6°C 44.4°F6.9°C 95% Calm Calm -- 30.31 in1026.4 mb - 0.00 in0.0 mm 0.01 in0.3 mm
04:45 AM 45.7°F7.6°C 44.4°F6.9°C 95% Calm Calm -- 30.31 in1026.4 mb - 0.00 in0.0 mm 0.01 in0.3 mm
04:30 AM 45.8°F7.7°C 44.5°F6.9°C 95% Calm Calm -- 30.31 in1026.4 mb - 0.00 in0.0 mm 0.01 in0.3 mm
04:15 AM 45.9°F7.7°C 44.6°F7.0°C 95% Calm Calm -- 30.31 in1026.4 mb - 0.00 in0.0 mm 0.01 in0.3 mm
04:00 AM 46.2°F7.9°C 44.8°F7.1°C 95% Calm Calm -- 30.31 in1026.4 mb - 0.00 in0.0 mm 0.01 in0.3 mm
03:45 AM 46.6°F8.1°C 45.2°F7.3°C 95% Calm Calm -- 30.31 in1026.4 mb - 0.00 in0.0 mm 0.01 in0.3 mm
03:30 AM 47.0°F8.3°C 45.6°F7.6°C 95% Calm Calm -- 30.31 in1026.4 mb - 0.00 in0.0 mm 0.01 in0.3 mm
02:30 AM 48.0°F8.9°C 46.6°F8.1°C 95% Calm Calm -- 30.32 in1026.8 mb - 0.00 in0.0 mm 0.00 in0.0 mm
02:15 AM 48.1°F8.9°C 46.7°F8.2°C 95% Calm Calm 1.0 mph1.6 kmh 30.32 in1026.8 mb - 0.00 in0.0 mm 0.00 in0.0 mm
02:00 AM 47.9°F8.8°C 46.5°F8.1°C 95% Calm Calm -- 30.32 in1026.8 mb - 0.00 in0.0 mm 0.00 in0.0 mm
01:45 AM 47.6°F8.7°C 46.2°F7.9°C 95% Calm Calm -- 30.32 in1026.8 mb - 0.00 in0.0 mm 0.00 in0.0 mm
01:30 AM 47.4°F8.6°C 46.0°F7.8°C 95% Calm Calm -- 30.32 in1026.8 mb - 0.00 in0.0 mm 0.00 in0.0 mm
01:15 AM 47.6°F8.7°C 46.2°F7.9°C 95% Calm Calm -- 30.32 in1026.8 mb - 0.00 in0.0 mm 0.00 in0.0 mm
01:00 AM 47.9°F8.8°C 46.5°F8.1°C 95% Calm Calm -- 30.32 in1026.8 mb - 0.00 in0.0 mm 0.00 in0.0 mm
12:45 AM 48.2°F9.0°C 46.9°F8.3°C 95% Calm Calm -- 30.32 in1026.8 mb - 0.00 in0.0 mm 0.00 in0.0 mm
12:30 AM 48.6°F9.2°C 47.2°F8.4°C 95% Calm Calm -- 30.32 in1026.8 mb - 0.00 in0.0 mm 0.00 in0.0 mm
12:15 AM 48.8°F9.3°C 47.4°F8.6°C 95% Calm Calm -- 30.32 in1026.8 mb - 0.00 in0.0 mm 0.00 in0.0 mm
12:00 AM 48.7°F9.3°C 47.3°F8.5°C 95% Calm Calm -- 30.33 in1027.1 mb - 0.00 in0.0 mm 0.00 in0.0 mm